createdAt,value
2019-02-25T00:04:39.304Z,34.66
2019-02-25T00:09:43.660Z,34.90
2019-02-25T00:14:47.879Z,36.14
2019-02-25T00:19:52.094Z,35.95
2019-02-25T00:24:56.327Z,36.41
2019-02-25T00:30:00.565Z,37.12
2019-02-25T00:35:05.023Z,36.45
2019-02-25T00:40:09.291Z,36.87
2019-02-25T00:45:13.776Z,37.41
2019-02-25T00:50:18.113Z,38.02
2019-02-25T00:55:22.346Z,38.48
2019-02-25T01:00:27.467Z,38.09
2019-02-25T01:05:31.688Z,39.12
2019-02-25T01:10:35.947Z,38.93
2019-02-25T01:15:40.190Z,38.16
2019-02-25T01:20:44.433Z,39.24
2019-02-25T01:25:48.672Z,39.07
2019-02-25T01:30:52.907Z,40.41
2019-02-25T01:35:57.148Z,40.34
2019-02-25T01:41:01.381Z,39.95
2019-02-25T01:46:05.631Z,41.00
2019-02-25T01:51:10.106Z,40.66
2019-02-25T01:56:14.334Z,40.43
2019-02-25T02:01:18.563Z,40.44
2019-02-25T02:06:22.778Z,39.46
2019-02-25T02:11:26.999Z,39.75
2019-02-25T02:16:31.235Z,41.19
2019-02-25T02:21:35.434Z,40.52
2019-02-25T02:26:39.664Z,40.66
2019-02-25T02:31:43.890Z,39.75
2019-02-25T02:36:48.109Z,40.31
2019-02-25T02:42:15.861Z,40.37
2019-02-25T02:47:50.917Z,39.70
2019-02-25T02:52:55.202Z,39.55
2019-02-25T02:57:59.441Z,39.63
2019-02-25T03:03:03.684Z,39.46
2019-02-25T03:08:07.906Z,39.51
2019-02-25T03:13:12.140Z,40.21
2019-02-25T03:18:16.357Z,40.43
2019-02-25T03:23:20.590Z,40.43
2019-02-25T03:28:24.827Z,39.82
2019-02-25T03:33:29.075Z,40.00
2019-02-25T03:38:33.307Z,40.27
2019-02-25T03:43:37.521Z,40.39
2019-02-25T03:48:41.757Z,41.10
2019-02-25T03:53:45.973Z,41.40
2019-02-25T03:58:50.201Z,41.69
2019-02-25T04:03:54.438Z,41.99
2019-02-25T04:08:58.671Z,42.29
2019-02-25T04:14:03.112Z,42.41
2019-02-25T04:19:10.659Z,42.62
2019-02-25T04:24:14.904Z,42.42
2019-02-25T04:29:19.123Z,42.79
2019-02-25T04:34:23.523Z,43.14
2019-02-25T04:39:28.207Z,43.27
2019-02-25T04:44:32.475Z,43.25
2019-02-25T04:49:36.711Z,43.15
2019-02-25T04:54:40.954Z,43.52
2019-02-25T04:59:45.295Z,44.52
2019-02-25T05:04:49.536Z,45.20
2019-02-25T05:09:53.761Z,44.98
2019-02-25T05:14:57.991Z,45.46
2019-02-25T05:20:02.251Z,45.50
2019-02-25T05:25:08.197Z,45.75
2019-02-25T05:30:12.879Z,45.76
2019-02-25T05:35:17.103Z,46.18
2019-02-25T05:40:21.338Z,46.40
2019-02-25T05:45:25.559Z,46.45
2019-02-25T05:50:29.790Z,46.67
2019-02-25T05:55:34.096Z,46.99
2019-02-25T06:00:38.350Z,47.02
2019-02-25T06:05:42.562Z,46.78
2019-02-25T06:10:46.820Z,47.05
2019-02-25T06:15:51.493Z,47.10
2019-02-25T06:20:55.797Z,47.36
2019-02-25T06:26:00.059Z,47.34
2019-02-25T06:31:04.267Z,46.91
2019-02-25T06:36:08.486Z,47.09
2019-02-25T06:41:12.735Z,47.06
2019-02-25T06:46:16.960Z,46.87
2019-02-25T06:51:21.185Z,46.99
2019-02-25T06:56:25.415Z,47.38
2019-02-25T07:01:29.634Z,47.16
2019-02-25T07:06:45.505Z,47.02
2019-02-25T07:12:01.313Z,46.85
2019-02-25T07:17:22.686Z,46.78
2019-02-25T07:22:33.546Z,46.65
2019-02-25T07:28:02.870Z,46.09
2019-02-25T07:33:24.315Z,45.84
2019-02-25T07:38:53.705Z,46.11
2019-02-25T07:44:10.348Z,45.74
2019-02-25T07:49:32.481Z,45.02
2019-02-25T07:55:04.801Z,45.02
2019-02-25T08:00:18.958Z,44.79
2019-02-25T08:05:41.428Z,45.34
2019-02-25T08:10:58.988Z,44.41
2019-02-25T08:16:34.503Z,43.88
2019-02-25T08:22:13.114Z,43.87
2019-02-25T08:27:36.295Z,43.18
2019-02-25T08:32:59.464Z,43.44
2019-02-25T08:38:34.809Z,42.46
2019-02-25T08:44:04.283Z,42.26
2019-02-25T08:49:12.760Z,42.52
2019-02-25T08:54:17.118Z,41.70
2019-02-25T08:59:21.361Z,41.75
2019-02-25T09:04:25.628Z,41.42
2019-02-25T09:09:29.876Z,41.45
2019-02-25T09:14:34.110Z,41.41
2019-02-25T09:19:38.351Z,41.83
2019-02-25T09:24:42.609Z,41.25
2019-02-25T09:29:46.849Z,41.13
2019-02-25T09:34:51.080Z,40.69
2019-02-25T09:39:55.323Z,40.81
2019-02-25T09:44:59.596Z,41.46
2019-02-25T09:50:03.827Z,42.32
2019-02-25T09:55:09.478Z,42.99
2019-02-25T10:00:15.755Z,42.55
2019-02-25T10:05:20.054Z,41.61
2019-02-25T10:10:24.287Z,40.70
2019-02-25T10:15:28.543Z,40.00
2019-02-25T10:20:32.774Z,38.71
2019-02-25T10:25:37.027Z,38.53
2019-02-25T10:30:41.295Z,38.40
2019-02-25T10:35:45.560Z,40.48
2019-02-25T10:40:51.607Z,38.88
2019-02-25T10:45:55.743Z,37.91
2019-02-25T10:50:59.971Z,34.98
2019-02-25T10:56:26.901Z,35.68
2019-02-25T11:01:31.165Z,32.68
2019-02-25T11:06:36.024Z,36.59
2019-02-25T11:11:41.375Z,36.42
2019-02-25T11:16:46.410Z,36.16
2019-02-25T11:21:51.601Z,35.78
2019-02-25T11:26:56.900Z,35.16
2019-02-25T11:32:01.793Z,36.57
2019-02-25T11:37:08.169Z,35.89
2019-02-25T11:42:13.525Z,35.13
2019-02-25T11:47:18.366Z,33.48
2019-02-25T11:52:22.630Z,32.73
2019-02-25T11:57:26.878Z,32.16
2019-02-25T12:02:31.125Z,31.38
2019-02-25T12:07:35.359Z,38.21
2019-02-25T12:12:39.592Z,32.92
2019-02-25T12:17:43.820Z,31.48
2019-02-25T12:22:48.074Z,36.33
2019-02-25T12:27:52.305Z,35.05
2019-02-25T12:32:56.548Z,35.31
2019-02-25T12:38:00.803Z,34.20
2019-02-25T12:43:05.038Z,31.72
2019-02-25T12:48:09.286Z,29.78
2019-02-25T12:53:13.575Z,29.88
2019-02-25T12:58:18.081Z,31.04
2019-02-25T13:03:22.320Z,30.58
2019-02-25T13:08:26.577Z,32.38
2019-02-25T13:13:30.817Z,30.14
2019-02-25T13:18:35.286Z,28.62
2019-02-25T13:23:39.563Z,31.85
2019-02-25T13:28:43.828Z,31.49
2019-02-25T13:33:48.105Z,32.51
2019-02-25T13:38:52.346Z,31.50
2019-02-25T13:43:56.592Z,33.27
2019-02-25T13:49:00.820Z,33.73
2019-02-25T13:54:05.175Z,35.27
2019-02-25T13:59:09.440Z,36.20
2019-02-25T14:04:13.739Z,37.94
2019-02-25T14:09:17.983Z,37.98
2019-02-25T14:14:22.213Z,37.69
2019-02-25T14:19:26.479Z,39.65
2019-02-25T14:24:30.683Z,40.60
2019-02-25T14:29:34.946Z,40.43
2019-02-25T14:34:39.183Z,40.50
2019-02-25T14:39:43.629Z,41.29
2019-02-25T14:44:49.956Z,41.35
2019-02-25T14:49:54.828Z,40.79
2019-02-25T14:55:00.960Z,41.37
2019-02-25T15:00:06.235Z,40.99
2019-02-25T15:05:10.834Z,41.76
2019-02-25T15:10:15.726Z,42.70
2019-02-25T15:15:20.286Z,42.09
2019-02-25T15:20:26.191Z,42.17
2019-02-25T15:25:31.624Z,42.32
2019-02-25T15:30:36.545Z,42.24
2019-02-25T15:35:41.700Z,41.47
2019-02-25T15:40:46.732Z,40.86
2019-02-25T15:45:51.068Z,41.16
2019-02-25T15:50:57.969Z,40.81
2019-02-25T15:56:03.572Z,41.19
2019-02-25T16:01:09.183Z,41.97
2019-02-25T16:06:13.538Z,41.96
2019-02-25T16:11:18.940Z,42.25
2019-02-25T16:16:24.414Z,41.31
2019-02-25T16:21:28.799Z,41.42
2019-02-25T16:26:34.195Z,41.39
2019-02-25T16:31:39.152Z,41.46
2019-02-25T16:36:44.838Z,41.90
2019-02-25T16:41:49.375Z,41.86
2019-02-25T16:46:54.144Z,41.63
2019-02-25T16:52:00.327Z,41.83
2019-02-25T16:57:04.419Z,42.12
2019-02-25T17:02:11.859Z,41.96
2019-02-25T17:07:16.143Z,42.36
2019-02-25T17:12:21.173Z,41.96
2019-02-25T17:17:26.599Z,42.23
2019-02-25T17:22:30.856Z,42.28
2019-02-25T17:27:35.110Z,42.49
2019-02-25T17:32:39.855Z,42.58
2019-02-25T17:37:45.342Z,42.53
2019-02-25T17:42:51.533Z,42.63
2019-02-25T17:47:58.329Z,42.60
2019-02-25T17:53:03.020Z,42.68
2019-02-25T17:58:08.551Z,42.85
2019-02-25T18:03:13.081Z,42.60
2019-02-25T18:08:19.209Z,42.49
2019-02-25T18:13:23.679Z,42.35
2019-02-25T18:18:29.525Z,42.16
2019-02-25T18:23:34.450Z,42.00
2019-02-25T18:28:40.031Z,42.18
2019-02-25T18:33:46.789Z,41.76
2019-02-25T18:38:52.710Z,41.88
2019-02-25T18:43:57.804Z,42.13
2019-02-25T18:49:03.097Z,42.49
2019-02-25T18:54:08.099Z,42.17
2019-02-25T18:59:15.487Z,42.14
2019-02-25T19:04:19.750Z,42.38
2019-02-25T19:09:25.637Z,42.51
2019-02-25T19:14:31.150Z,42.61
2019-02-25T19:19:38.461Z,43.00
2019-02-25T19:24:44.585Z,43.19
2019-02-25T19:29:49.401Z,43.45
2019-02-25T19:34:56.159Z,43.07
2019-02-25T19:40:00.891Z,43.23
2019-02-25T19:45:07.748Z,43.46
2019-02-25T19:50:13.178Z,43.53
2019-02-25T19:55:20.247Z,43.16
2019-02-25T20:00:27.708Z,43.68
2019-02-25T20:05:33.282Z,43.57
2019-02-25T20:10:37.804Z,43.25
2019-02-25T20:15:44.093Z,43.08
2019-02-25T20:20:48.239Z,43.16
2019-02-25T20:25:53.509Z,42.95
2019-02-25T20:30:58.802Z,43.08
2019-02-25T20:36:03.282Z,43.40
2019-02-25T20:41:07.585Z,43.04
2019-02-25T20:46:11.855Z,43.25
2019-02-25T20:51:16.106Z,43.26
2019-02-25T20:56:20.358Z,43.57
2019-02-25T21:01:25.120Z,43.48
2019-02-25T21:06:29.548Z,43.69
2019-02-25T21:11:33.790Z,43.70
2019-02-25T21:16:38.021Z,43.36
2019-02-25T21:21:42.273Z,43.56
2019-02-25T21:26:46.514Z,43.59
2019-02-25T21:31:52.311Z,43.48
2019-02-25T21:36:58.496Z,43.11
2019-02-25T21:42:02.725Z,43.61
2019-02-25T21:47:06.957Z,43.02
2019-02-25T21:52:13.078Z,43.02
2019-02-25T21:57:17.174Z,43.04
2019-02-25T22:02:21.556Z,43.01
2019-02-25T22:07:27.218Z,43.00
2019-02-25T22:12:33.152Z,43.20
2019-02-25T22:17:38.604Z,42.95
2019-02-25T22:22:43.682Z,43.20
2019-02-25T22:27:47.917Z,43.48
2019-02-25T22:32:52.137Z,43.55
2019-02-25T22:37:58.090Z,43.79
2019-02-25T22:43:02.525Z,44.06
2019-02-25T22:48:06.760Z,44.09
2019-02-25T22:53:11.317Z,44.37
2019-02-25T22:58:17.046Z,44.47
2019-02-25T23:03:23.190Z,44.83
2019-02-25T23:08:27.630Z,45.00
2019-02-25T23:13:32.048Z,45.17
2019-02-25T23:18:36.359Z,45.26
2019-02-25T23:23:40.662Z,45.27
2019-02-25T23:28:44.880Z,45.33
2019-02-25T23:33:51.110Z,45.29
2019-02-25T23:38:57.011Z,45.47
2019-02-25T23:44:01.052Z,45.67
2019-02-25T23:49:05.280Z,46.22
2019-02-25T23:54:12.173Z,46.19
2019-02-25T23:59:17.106Z,46.27
